samedi 25 janvier 2014

ALERTE SPOTTING 25/01/14

73H TC-AZP Pegasus Asia
   PC873/PC874 17h40/18h30

772 TR-KPR Gabon
   dpt  12h00

744 EC-KQC Pullmantur Air

   dpt PLM6021 12h20

73W FAC0001  Fuerza Aerea Colombiana
   dpt 14h40

320 F-HDMF Air Corsica (cyclistes)
   XK4501/XK4500   08H30/09H25
   XK4503/XK4502    15H00/16H10

 Manque les prévisions Air Europa / Flybe / certains Air Algérie
*** Heures en Local Time / prévisions soumises
 à modifications de dernières minutes ***

le TAF de la journée:

METAR: LFPO 250330Z 16005KT 130V190 8000 -RA BKN043 03/02 Q1017
NOSIG=
 
TAF LONG: LFPO 242300Z 2500/2606 17007KT CAVOK BECMG 2502/2504 BKN012 TEMPO
2502/2507 6000 RA BKN009 BECMG 2507/2509 BKN009 PROB30 TEMPO
2509/2513 2000 -DZ BKN004 BECMG 2517/2520 27015G28KT SCT030=

Les logs des jours précédents :
 http://www.airkalo.com/ORLYAVIATION/Logdumois.html